Terminal Aerodrome Forecast
Issued by NWS

Home | Current Version | Previous Version | Text Only | Print | Product List | Glossary On
Versions: 1 2 3 4 5 6 7 8 9 10 11 12
908
FTUS45 KRIW 221727
TAFWRL
TAF
KWRL 221727Z 2218/2318 VRB04KT P6SM SCT100 BKN200
     FM222300 36008KT P6SM SCT050 BKN100
     FM230700 35011KT P6SM VCSH OVC024
     FM231400 34020G32KT 5SM -SN BLSN OVC020=

USA.gov is the U.S. government's official web portal to all federal, state and local government web resources and services.